sensor_id;sensor_type;location;lat;lon;timestamp;temperature;humidity
40622;DHT22;26324;52.040;11.528;2022-11-22T00:00:29;0.00;91.80
40622;DHT22;26324;52.040;11.528;2022-11-22T00:02:55;0.10;91.80
40622;DHT22;26324;52.040;11.528;2022-11-22T00:05:20;0.10;91.80
40622;DHT22;26324;52.040;11.528;2022-11-22T00:07:46;0.00;91.80
40622;DHT22;26324;52.040;11.528;2022-11-22T00:10:12;0.00;91.80
40622;DHT22;26324;52.040;11.528;2022-11-22T00:12:38;0.00;91.80
40622;DHT22;26324;52.040;11.528;2022-11-22T00:15:05;0.00;91.80
40622;DHT22;26324;52.040;11.528;2022-11-22T00:17:32;0.00;91.80
40622;DHT22;26324;52.040;11.528;2022-11-22T00:19:58;0.00;91.80
40622;DHT22;26324;52.040;11.528;2022-11-22T00:22:24;0.00;91.80
40622;DHT22;26324;52.040;11.528;2022-11-22T00:24:51;0.10;91.80
40622;DHT22;26324;52.040;11.528;2022-11-22T00:27:17;0.10;91.80
40622;DHT22;26324;52.040;11.528;2022-11-22T00:29:43;0.10;91.60
40622;DHT22;26324;52.040;11.528;2022-11-22T00:32:09;0.10;91.70
40622;DHT22;26324;52.040;11.528;2022-11-22T00:34:34;0.10;91.50
40622;DHT22;26324;52.040;11.528;2022-11-22T00:37:00;0.00;91.40
40622;DHT22;26324;52.040;11.528;2022-11-22T00:39:25;0.00;91.50
40622;DHT22;26324;52.040;11.528;2022-11-22T00:41:51;0.00;91.60
40622;DHT22;26324;52.040;11.528;2022-11-22T00:44:16;0.00;91.60
40622;DHT22;26324;52.040;11.528;2022-11-22T00:46:42;0.00;91.60
40622;DHT22;26324;52.040;11.528;2022-11-22T00:49:07;0.00;91.50
40622;DHT22;26324;52.040;11.528;2022-11-22T00:51:33;0.00;91.60
40622;DHT22;26324;52.040;11.528;2022-11-22T00:53:58;0.00;91.60
40622;DHT22;26324;52.040;11.528;2022-11-22T00:56:24;0.00;91.40
40622;DHT22;26324;52.040;11.528;2022-11-22T00:58:49;0.00;91.40
40622;DHT22;26324;52.040;11.528;2022-11-22T01:01:15;0.00;91.40
40622;DHT22;26324;52.040;11.528;2022-11-22T01:03:40;0.00;91.60
40622;DHT22;26324;52.040;11.528;2022-11-22T01:06:06;-3276.70;91.60
40622;DHT22;26324;52.040;11.528;2022-11-22T01:08:31;-3276.70;91.50
40622;DHT22;26324;52.040;11.528;2022-11-22T01:11:04;-3276.70;91.60
40622;DHT22;26324;52.040;11.528;2022-11-22T01:13:30;0.00;91.60
40622;DHT22;26324;52.040;11.528;2022-11-22T01:16:00;-3276.70;91.50
40622;DHT22;26324;52.040;11.528;2022-11-22T01:18:26;-3276.70;91.50
40622;DHT22;26324;52.040;11.528;2022-11-22T01:20:52;-3276.70;91.60
40622;DHT22;26324;52.040;11.528;2022-11-22T01:23:17;-3276.70;91.60
40622;DHT22;26324;52.040;11.528;2022-11-22T01:25:43;-3276.70;91.50
40622;DHT22;26324;52.040;11.528;2022-11-22T01:28:09;-3276.60;91.50
40622;DHT22;26324;52.040;11.528;2022-11-22T01:30:35;-3276.60;91.70
40622;DHT22;26324;52.040;11.528;2022-11-22T01:33:00;-3276.50;91.60
40622;DHT22;26324;52.040;11.528;2022-11-22T01:35:26;-3276.50;91.70
40622;DHT22;26324;52.040;11.528;2022-11-22T01:37:51;-3276.50;91.70
40622;DHT22;26324;52.040;11.528;2022-11-22T01:40:17;-3276.60;91.80
40622;DHT22;26324;52.040;11.528;2022-11-22T01:45:36;-3276.50;91.70
40622;DHT22;26324;52.040;11.528;2022-11-22T01:48:13;-3276.50;91.60
40622;DHT22;26324;52.040;11.528;2022-11-22T01:50:43;-3276.50;91.70
40622;DHT22;26324;52.040;11.528;2022-11-22T01:53:24;-3276.50;91.80
40622;DHT22;26324;52.040;11.528;2022-11-22T01:55:52;-3276.60;91.70
40622;DHT22;26324;52.040;11.528;2022-11-22T01:58:20;-3276.50;91.60
40622;DHT22;26324;52.040;11.528;2022-11-22T02:00:47;-3276.50;91.50
40622;DHT22;26324;52.040;11.528;2022-11-22T02:03:14;-3276.50;91.40
40622;DHT22;26324;52.040;11.528;2022-11-22T02:05:40;-3276.50;91.50
40622;DHT22;26324;52.040;11.528;2022-11-22T02:08:12;-3276.50;91.50
40622;DHT22;26324;52.040;11.528;2022-11-22T02:10:43;-3276.50;91.50
40622;DHT22;26324;52.040;11.528;2022-11-22T02:13:10;-3276.50;91.40
40622;DHT22;26324;52.040;11.528;2022-11-22T02:15:37;-3276.40;91.40
40622;DHT22;26324;52.040;11.528;2022-11-22T02:18:03;-3276.40;91.40
40622;DHT22;26324;52.040;11.528;2022-11-22T02:20:28;-3276.40;91.40
40622;DHT22;26324;52.040;11.528;2022-11-22T02:25:58;-3276.40;91.50
40622;DHT22;26324;52.040;11.528;2022-11-22T02:28:24;-3276.40;91.50
40622;DHT22;26324;52.040;11.528;2022-11-22T02:30:51;-3276.40;91.50
40622;DHT22;26324;52.040;11.528;2022-11-22T02:33:16;-3276.40;91.50
40622;DHT22;26324;52.040;11.528;2022-11-22T02:35:43;-3276.50;91.40
40622;DHT22;26324;52.040;11.528;2022-11-22T02:38:16;-3276.50;91.20
40622;DHT22;26324;52.040;11.528;2022-11-22T02:41:06;-3276.60;91.20
40622;DHT22;26324;52.040;11.528;2022-11-22T02:43:45;-3276.50;91.10
40622;DHT22;26324;52.040;11.528;2022-11-22T02:46:14;-3276.50;91.10
40622;DHT22;26324;52.040;11.528;2022-11-22T02:48:45;-3276.50;91.10
40622;DHT22;26324;52.040;11.528;2022-11-22T02:51:12;-3276.50;91.00
40622;DHT22;26324;52.040;11.528;2022-11-22T02:53:42;-3276.40;91.10
40622;DHT22;26324;52.040;11.528;2022-11-22T02:56:08;-3276.40;91.10
40622;DHT22;26324;52.040;11.528;2022-11-22T02:58:33;-3276.40;91.10
40622;DHT22;26324;52.040;11.528;2022-11-22T03:01:08;-3276.30;91.10
40622;DHT22;26324;52.040;11.528;2022-11-22T03:03:34;-3276.30;91.30
40622;DHT22;26324;52.040;11.528;2022-11-22T03:05:59;-3276.30;91.30
40622;DHT22;26324;52.040;11.528;2022-11-22T03:08:26;-3276.40;91.40
40622;DHT22;26324;52.040;11.528;2022-11-22T03:10:52;-3276.40;91.30
40622;DHT22;26324;52.040;11.528;2022-11-22T03:13:17;-3276.40;91.30
40622;DHT22;26324;52.040;11.528;2022-11-22T03:15:46;-3276.40;91.20
40622;DHT22;26324;52.040;11.528;2022-11-22T03:18:11;-3276.40;91.20
40622;DHT22;26324;52.040;11.528;2022-11-22T03:20:37;-3276.40;91.20
40622;DHT22;26324;52.040;11.528;2022-11-22T03:23:02;-3276.30;91.20
40622;DHT22;26324;52.040;11.528;2022-11-22T03:25:28;-3276.30;91.30
40622;DHT22;26324;52.040;11.528;2022-11-22T03:27:54;-3276.30;91.40
40622;DHT22;26324;52.040;11.528;2022-11-22T03:30:19;-3276.30;91.50
40622;DHT22;26324;52.040;11.528;2022-11-22T03:32:45;-3276.30;91.50
40622;DHT22;26324;52.040;11.528;2022-11-22T03:35:11;-3276.40;91.50
40622;DHT22;26324;52.040;11.528;2022-11-22T03:37:36;-3276.40;91.30
40622;DHT22;26324;52.040;11.528;2022-11-22T03:40:03;-3276.30;91.30
40622;DHT22;26324;52.040;11.528;2022-11-22T03:42:29;-3276.40;91.50
40622;DHT22;26324;52.040;11.528;2022-11-22T03:44:54;-3276.40;91.40
40622;DHT22;26324;52.040;11.528;2022-11-22T03:47:20;-3276.50;91.40
40622;DHT22;26324;52.040;11.528;2022-11-22T03:49:45;-3276.50;91.40
40622;DHT22;26324;52.040;11.528;2022-11-22T03:52:11;-3276.50;91.40
40622;DHT22;26324;52.040;11.528;2022-11-22T03:54:42;-3276.50;91.30
40622;DHT22;26324;52.040;11.528;2022-11-22T03:57:08;-3276.50;91.20
40622;DHT22;26324;52.040;11.528;2022-11-22T03:59:33;-3276.50;91.20
40622;DHT22;26324;52.040;11.528;2022-11-22T04:02:04;-3276.50;91.30
40622;DHT22;26324;52.040;11.528;2022-11-22T04:04:43;-3276.40;91.20
40622;DHT22;26324;52.040;11.528;2022-11-22T04:07:36;-3276.50;91.30
40622;DHT22;26324;52.040;11.528;2022-11-22T04:13:00;-3276.40;91.40
40622;DHT22;26324;52.040;11.528;2022-11-22T04:15:26;-3276.40;91.40
40622;DHT22;26324;52.040;11.528;2022-11-22T04:17:52;-3276.50;91.40
40622;DHT22;26324;52.040;11.528;2022-11-22T04:20:33;-3276.40;91.30
40622;DHT22;26324;52.040;11.528;2022-11-22T04:23:19;-3276.40;91.40
40622;DHT22;26324;52.040;11.528;2022-11-22T04:25:50;-3276.50;91.40
40622;DHT22;26324;52.040;11.528;2022-11-22T04:28:31;-3276.40;91.40
40622;DHT22;26324;52.040;11.528;2022-11-22T04:30:57;-3276.40;91.40
40622;DHT22;26324;52.040;11.528;2022-11-22T04:33:45;-3276.40;91.50
40622;DHT22;26324;52.040;11.528;2022-11-22T04:36:10;-3276.30;91.60
40622;DHT22;26324;52.040;11.528;2022-11-22T04:38:52;-3276.40;91.60
40622;DHT22;26324;52.040;11.528;2022-11-22T04:41:17;-3276.40;91.60
40622;DHT22;26324;52.040;11.528;2022-11-22T04:43:43;-3276.40;91.60
40622;DHT22;26324;52.040;11.528;2022-11-22T04:46:27;-3276.50;91.70
40622;DHT22;26324;52.040;11.528;2022-11-22T04:48:55;-3276.50;91.70
40622;DHT22;26324;52.040;11.528;2022-11-22T04:51:21;-3276.50;91.60
40622;DHT22;26324;52.040;11.528;2022-11-22T04:54:05;-3276.60;91.60
40622;DHT22;26324;52.040;11.528;2022-11-22T04:56:30;-3276.60;91.60
40622;DHT22;26324;52.040;11.528;2022-11-22T04:58:56;-3276.50;91.60
40622;DHT22;26324;52.040;11.528;2022-11-22T05:01:21;-3276.50;91.70
40622;DHT22;26324;52.040;11.528;2022-11-22T05:03:47;-3276.50;91.60
40622;DHT22;26324;52.040;11.528;2022-11-22T05:06:12;-3276.50;91.60
40622;DHT22;26324;52.040;11.528;2022-11-22T05:08:39;-3276.60;91.50
40622;DHT22;26324;52.040;11.528;2022-11-22T05:11:04;-3276.60;91.60
40622;DHT22;26324;52.040;11.528;2022-11-22T05:13:35;-3276.60;91.60
40622;DHT22;26324;52.040;11.528;2022-11-22T05:16:03;-3276.60;91.60
40622;DHT22;26324;52.040;11.528;2022-11-22T05:18:29;-3276.60;91.50
40622;DHT22;26324;52.040;11.528;2022-11-22T05:20:55;-3276.60;91.50
40622;DHT22;26324;52.040;11.528;2022-11-22T05:23:22;-3276.60;91.50
40622;DHT22;26324;52.040;11.528;2022-11-22T05:26:07;-3276.70;91.30
40622;DHT22;26324;52.040;11.528;2022-11-22T05:28:35;-3276.70;91.40
40622;DHT22;26324;52.040;11.528;2022-11-22T05:31:08;-3276.70;91.40
40622;DHT22;26324;52.040;11.528;2022-11-22T05:33:35;-3276.70;91.30
40622;DHT22;26324;52.040;11.528;2022-11-22T05:36:00;0.00;91.40
40622;DHT22;26324;52.040;11.528;2022-11-22T05:38:26;0.00;91.20
40622;DHT22;26324;52.040;11.528;2022-11-22T05:40:51;0.00;91.20
40622;DHT22;26324;52.040;11.528;2022-11-22T05:43:17;0.00;91.20
40622;DHT22;26324;52.040;11.528;2022-11-22T05:45:42;0.00;91.00
40622;DHT22;26324;52.040;11.528;2022-11-22T05:48:08;0.00;91.00
40622;DHT22;26324;52.040;11.528;2022-11-22T05:50:33;0.00;91.00
40622;DHT22;26324;52.040;11.528;2022-11-22T05:53:00;0.00;90.90
40622;DHT22;26324;52.040;11.528;2022-11-22T05:55:26;0.00;90.90
40622;DHT22;26324;52.040;11.528;2022-11-22T05:57:52;0.00;90.80
40622;DHT22;26324;52.040;11.528;2022-11-22T06:00:18;0.00;90.90
40622;DHT22;26324;52.040;11.528;2022-11-22T06:02:43;0.00;90.80
40622;DHT22;26324;52.040;11.528;2022-11-22T06:05:09;0.00;90.90
40622;DHT22;26324;52.040;11.528;2022-11-22T06:07:34;0.00;90.80
40622;DHT22;26324;52.040;11.528;2022-11-22T06:10:00;0.00;90.80
40622;DHT22;26324;52.040;11.528;2022-11-22T06:12:25;-3276.60;91.00
40622;DHT22;26324;52.040;11.528;2022-11-22T06:14:51;-3276.50;91.30
40622;DHT22;26324;52.040;11.528;2022-11-22T06:17:16;-3276.50;91.50
40622;DHT22;26324;52.040;11.528;2022-11-22T06:19:42;-3276.60;91.50
40622;DHT22;26324;52.040;11.528;2022-11-22T06:22:08;-3276.70;91.50
40622;DHT22;26324;52.040;11.528;2022-11-22T06:24:34;-3276.70;91.40
40622;DHT22;26324;52.040;11.528;2022-11-22T06:27:00;0.00;91.40
40622;DHT22;26324;52.040;11.528;2022-11-22T06:29:25;0.00;91.40
40622;DHT22;26324;52.040;11.528;2022-11-22T06:31:51;0.00;91.20
40622;DHT22;26324;52.040;11.528;2022-11-22T06:34:16;0.00;91.20
40622;DHT22;26324;52.040;11.528;2022-11-22T06:36:42;0.00;91.20
40622;DHT22;26324;52.040;11.528;2022-11-22T06:39:08;-3276.70;91.10
40622;DHT22;26324;52.040;11.528;2022-11-22T06:41:35;-3276.70;91.40
40622;DHT22;26324;52.040;11.528;2022-11-22T06:44:04;-3276.70;91.50
40622;DHT22;26324;52.040;11.528;2022-11-22T06:46:30;0.00;91.50
40622;DHT22;26324;52.040;11.528;2022-11-22T06:48:56;0.00;91.40
40622;DHT22;26324;52.040;11.528;2022-11-22T06:51:24;0.00;91.40
40622;DHT22;26324;52.040;11.528;2022-11-22T06:53:51;0.00;91.30
40622;DHT22;26324;52.040;11.528;2022-11-22T06:56:31;0.00;91.30
40622;DHT22;26324;52.040;11.528;2022-11-22T06:59:04;0.10;91.30
40622;DHT22;26324;52.040;11.528;2022-11-22T07:01:31;0.10;91.10
40622;DHT22;26324;52.040;11.528;2022-11-22T07:03:57;0.10;91.10
40622;DHT22;26324;52.040;11.528;2022-11-22T07:06:29;0.10;91.10
40622;DHT22;26324;52.040;11.528;2022-11-22T07:08:55;0.10;91.10
40622;DHT22;26324;52.040;11.528;2022-11-22T07:11:23;0.10;91.20
40622;DHT22;26324;52.040;11.528;2022-11-22T07:13:50;0.10;91.20
40622;DHT22;26324;52.040;11.528;2022-11-22T07:16:17;0.10;91.10
40622;DHT22;26324;52.040;11.528;2022-11-22T07:18:43;0.10;91.20
40622;DHT22;26324;52.040;11.528;2022-11-22T07:21:20;0.20;91.30
40622;DHT22;26324;52.040;11.528;2022-11-22T07:23:48;0.20;91.10
40622;DHT22;26324;52.040;11.528;2022-11-22T07:26:15;0.30;91.10
40622;DHT22;26324;52.040;11.528;2022-11-22T07:28:41;0.20;91.00
40622;DHT22;26324;52.040;11.528;2022-11-22T07:31:08;0.20;91.20
40622;DHT22;26324;52.040;11.528;2022-11-22T07:33:34;0.30;91.10
40622;DHT22;26324;52.040;11.528;2022-11-22T07:36:12;0.30;91.20
40622;DHT22;26324;52.040;11.528;2022-11-22T07:38:39;0.30;91.10
40622;DHT22;26324;52.040;11.528;2022-11-22T07:41:05;0.30;91.10
40622;DHT22;26324;52.040;11.528;2022-11-22T07:43:32;0.30;91.00
40622;DHT22;26324;52.040;11.528;2022-11-22T07:46:02;0.40;91.10
40622;DHT22;26324;52.040;11.528;2022-11-22T07:48:28;0.30;90.90
40622;DHT22;26324;52.040;11.528;2022-11-22T07:50:53;0.30;91.10
40622;DHT22;26324;52.040;11.528;2022-11-22T07:53:19;0.30;91.20
40622;DHT22;26324;52.040;11.528;2022-11-22T07:55:45;0.30;91.20
40622;DHT22;26324;52.040;11.528;2022-11-22T07:58:10;0.20;91.20
40622;DHT22;26324;52.040;11.528;2022-11-22T08:00:36;0.20;91.40
40622;DHT22;26324;52.040;11.528;2022-11-22T08:03:01;0.30;91.50
40622;DHT22;26324;52.040;11.528;2022-11-22T08:05:27;0.30;91.50
40622;DHT22;26324;52.040;11.528;2022-11-22T08:07:54;0.30;91.40
40622;DHT22;26324;52.040;11.528;2022-11-22T08:10:20;0.30;91.40
40622;DHT22;26324;52.040;11.528;2022-11-22T08:12:46;0.30;91.50
40622;DHT22;26324;52.040;11.528;2022-11-22T08:15:13;0.40;91.50
40622;DHT22;26324;52.040;11.528;2022-11-22T08:17:39;0.50;91.40
40622;DHT22;26324;52.040;11.528;2022-11-22T08:20:06;0.60;91.40
40622;DHT22;26324;52.040;11.528;2022-11-22T08:22:37;0.60;91.20
40622;DHT22;26324;52.040;11.528;2022-11-22T08:25:03;0.60;91.20
40622;DHT22;26324;52.040;11.528;2022-11-22T08:27:28;0.60;91.10
40622;DHT22;26324;52.040;11.528;2022-11-22T08:29:54;0.60;91.20
40622;DHT22;26324;52.040;11.528;2022-11-22T08:32:19;0.70;91.10
40622;DHT22;26324;52.040;11.528;2022-11-22T08:34:45;0.80;91.00
40622;DHT22;26324;52.040;11.528;2022-11-22T08:37:10;0.90;90.90
40622;DHT22;26324;52.040;11.528;2022-11-22T08:39:36;0.90;90.80
40622;DHT22;26324;52.040;11.528;2022-11-22T08:42:02;1.00;90.70
40622;DHT22;26324;52.040;11.528;2022-11-22T08:44:27;1.00;90.20
40622;DHT22;26324;52.040;11.528;2022-11-22T08:46:53;0.90;90.30
40622;DHT22;26324;52.040;11.528;2022-11-22T08:49:18;0.80;90.10
40622;DHT22;26324;52.040;11.528;2022-11-22T08:51:44;0.80;90.30
40622;DHT22;26324;52.040;11.528;2022-11-22T08:54:11;0.80;90.50
40622;DHT22;26324;52.040;11.528;2022-11-22T08:56:37;0.80;90.70
40622;DHT22;26324;52.040;11.528;2022-11-22T08:59:03;0.90;90.50
40622;DHT22;26324;52.040;11.528;2022-11-22T09:01:28;1.00;90.60
40622;DHT22;26324;52.040;11.528;2022-11-22T09:03:54;1.00;90.30
40622;DHT22;26324;52.040;11.528;2022-11-22T09:06:19;1.00;90.20
40622;DHT22;26324;52.040;11.528;2022-11-22T09:08:46;1.00;90.20
40622;DHT22;26324;52.040;11.528;2022-11-22T09:11:16;1.00;90.30
40622;DHT22;26324;52.040;11.528;2022-11-22T09:13:43;0.90;90.20
40622;DHT22;26324;52.040;11.528;2022-11-22T09:16:14;0.80;90.50
40622;DHT22;26324;52.040;11.528;2022-11-22T09:18:44;0.80;90.70
40622;DHT22;26324;52.040;11.528;2022-11-22T09:21:12;1.00;90.90
40622;DHT22;26324;52.040;11.528;2022-11-22T09:23:41;1.10;90.70
40622;DHT22;26324;52.040;11.528;2022-11-22T09:26:10;1.10;90.30
40622;DHT22;26324;52.040;11.528;2022-11-22T09:28:40;1.10;90.40
40622;DHT22;26324;52.040;11.528;2022-11-22T09:31:14;1.20;90.30
40622;DHT22;26324;52.040;11.528;2022-11-22T09:33:41;1.30;90.30
40622;DHT22;26324;52.040;11.528;2022-11-22T09:36:18;1.50;90.10
40622;DHT22;26324;52.040;11.528;2022-11-22T09:38:44;1.50;89.60
40622;DHT22;26324;52.040;11.528;2022-11-22T09:49:49;1.50;89.60
40622;DHT22;26324;52.040;11.528;2022-11-22T09:52:42;1.50;89.50
40622;DHT22;26324;52.040;11.528;2022-11-22T09:55:22;1.50;89.60
40622;DHT22;26324;52.040;11.528;2022-11-22T09:57:55;1.60;89.70
40622;DHT22;26324;52.040;11.528;2022-11-22T10:00:26;1.60;89.60
40622;DHT22;26324;52.040;11.528;2022-11-22T10:03:07;1.60;89.60
40622;DHT22;26324;52.040;11.528;2022-11-22T10:05:52;1.70;89.60
40622;DHT22;26324;52.040;11.528;2022-11-22T10:08:34;1.90;89.60
40622;DHT22;26324;52.040;11.528;2022-11-22T10:11:02;2.10;89.30
40622;DHT22;26324;52.040;11.528;2022-11-22T10:13:42;2.30;89.00
40622;DHT22;26324;52.040;11.528;2022-11-22T10:16:14;2.40;88.10
40622;DHT22;26324;52.040;11.528;2022-11-22T10:18:50;2.30;88.00
40622;DHT22;26324;52.040;11.528;2022-11-22T10:21:18;2.40;88.20
40622;DHT22;26324;52.040;11.528;2022-11-22T10:23:44;2.50;87.60
40622;DHT22;26324;52.040;11.528;2022-11-22T10:26:21;2.30;87.60
40622;DHT22;26324;52.040;11.528;2022-11-22T10:45:20;2.50;87.40
40622;DHT22;26324;52.040;11.528;2022-11-22T10:48:01;2.60;87.40
40622;DHT22;26324;52.040;11.528;2022-11-22T10:56:07;2.40;87.40
40622;DHT22;26324;52.040;11.528;2022-11-22T11:01:36;2.50;87.40
40622;DHT22;26324;52.040;11.528;2022-11-22T11:04:07;2.40;87.60
40622;DHT22;26324;52.040;11.528;2022-11-22T11:06:49;2.40;87.80
40622;DHT22;26324;52.040;11.528;2022-11-22T11:09:18;2.50;88.00
40622;DHT22;26324;52.040;11.528;2022-11-22T11:11:46;2.60;87.80
40622;DHT22;26324;52.040;11.528;2022-11-22T11:16:59;2.50;87.50
40622;DHT22;26324;52.040;11.528;2022-11-22T11:19:28;2.50;87.60
40622;DHT22;26324;52.040;11.528;2022-11-22T11:22:01;2.60;87.50
40622;DHT22;26324;52.040;11.528;2022-11-22T11:24:38;2.80;87.40
40622;DHT22;26324;52.040;11.528;2022-11-22T11:27:05;2.90;87.10
40622;DHT22;26324;52.040;11.528;2022-11-22T11:29:46;2.90;86.60
40622;DHT22;26324;52.040;11.528;2022-11-22T11:32:15;2.80;86.60
40622;DHT22;26324;52.040;11.528;2022-11-22T11:37:22;2.90;86.30
40622;DHT22;26324;52.040;11.528;2022-11-22T11:39:49;3.00;86.40
40622;DHT22;26324;52.040;11.528;2022-11-22T11:42:30;2.90;86.50
40622;DHT22;26324;52.040;11.528;2022-11-22T11:45:25;2.80;86.50
40622;DHT22;26324;52.040;11.528;2022-11-22T11:47:52;2.70;87.00
40622;DHT22;26324;52.040;11.528;2022-11-22T11:50:26;2.70;87.00
40622;DHT22;26324;52.040;11.528;2022-11-22T11:53:05;2.80;87.20
40622;DHT22;26324;52.040;11.528;2022-11-22T11:55:40;2.80;87.20
40622;DHT22;26324;52.040;11.528;2022-11-22T11:58:18;2.90;87.30
40622;DHT22;26324;52.040;11.528;2022-11-22T12:00:45;3.00;87.10
40622;DHT22;26324;52.040;11.528;2022-11-22T12:03:15;2.90;87.00
40622;DHT22;26324;52.040;11.528;2022-11-22T12:05:42;3.00;87.20
40622;DHT22;26324;52.040;11.528;2022-11-22T12:08:28;3.10;86.90
40622;DHT22;26324;52.040;11.528;2022-11-22T12:11:04;3.10;86.60
40622;DHT22;26324;52.040;11.528;2022-11-22T12:13:49;3.30;86.80
40622;DHT22;26324;52.040;11.528;2022-11-22T12:16:25;3.50;86.00
40622;DHT22;26324;52.040;11.528;2022-11-22T12:19:13;3.50;85.80
40622;DHT22;26324;52.040;11.528;2022-11-22T12:22:24;3.50;85.90
40622;DHT22;26324;52.040;11.528;2022-11-22T12:27:39;3.60;85.60
40622;DHT22;26324;52.040;11.528;2022-11-22T12:30:10;3.60;85.20
40622;DHT22;26324;52.040;11.528;2022-11-22T12:32:50;3.40;85.20
40622;DHT22;26324;52.040;11.528;2022-11-22T12:35:20;3.30;85.90
40622;DHT22;26324;52.040;11.528;2022-11-22T12:37:54;3.40;85.90
40622;DHT22;26324;52.040;11.528;2022-11-22T12:40:26;3.40;85.90
40622;DHT22;26324;52.040;11.528;2022-11-22T12:45:50;3.30;86.50
40622;DHT22;26324;52.040;11.528;2022-11-22T12:48:29;3.30;86.60
40622;DHT22;26324;52.040;11.528;2022-11-22T12:51:08;3.40;86.50
40622;DHT22;26324;52.040;11.528;2022-11-22T12:53:40;3.40;86.30
40622;DHT22;26324;52.040;11.528;2022-11-22T12:56:21;3.50;86.30
40622;DHT22;26324;52.040;11.528;2022-11-22T12:59:37;3.50;86.30
40622;DHT22;26324;52.040;11.528;2022-11-22T13:09:12;3.40;86.20
40622;DHT22;26324;52.040;11.528;2022-11-22T13:11:49;3.30;86.60
40622;DHT22;26324;52.040;11.528;2022-11-22T13:14:32;3.30;86.70
40622;DHT22;26324;52.040;11.528;2022-11-22T13:17:11;3.30;86.70
40622;DHT22;26324;52.040;11.528;2022-11-22T13:19:54;3.30;86.90
40622;DHT22;26324;52.040;11.528;2022-11-22T13:25:23;3.30;87.10
40622;DHT22;26324;52.040;11.528;2022-11-22T13:27:53;3.20;87.10
40622;DHT22;26324;52.040;11.528;2022-11-22T13:30:26;3.30;87.50
40622;DHT22;26324;52.040;11.528;2022-11-22T13:32:57;3.30;87.20
40622;DHT22;26324;52.040;11.528;2022-11-22T13:35:35;3.30;87.30
40622;DHT22;26324;52.040;11.528;2022-11-22T13:38:04;3.40;87.40
40622;DHT22;26324;52.040;11.528;2022-11-22T13:40:37;3.40;87.40
40622;DHT22;26324;52.040;11.528;2022-11-22T13:45:54;3.50;87.50
40622;DHT22;26324;52.040;11.528;2022-11-22T13:51:08;3.90;87.40
40622;DHT22;26324;52.040;11.528;2022-11-22T13:53:38;4.20;86.80
40622;DHT22;26324;52.040;11.528;2022-11-22T13:59:17;5.00;84.80
40622;DHT22;26324;52.040;11.528;2022-11-22T14:04:31;6.30;80.00
40622;DHT22;26324;52.040;11.528;2022-11-22T14:15:24;5.40;78.90
40622;DHT22;26324;52.040;11.528;2022-11-22T14:18:28;5.00;80.50
40622;DHT22;26324;52.040;11.528;2022-11-22T14:21:09;4.70;81.60
40622;DHT22;26324;52.040;11.528;2022-11-22T14:40:40;4.10;82.60
40622;DHT22;26324;52.040;11.528;2022-11-22T14:43:28;3.90;83.00
40622;DHT22;26324;52.040;11.528;2022-11-22T14:46:19;3.60;83.80
40622;DHT22;26324;52.040;11.528;2022-11-22T14:49:47;3.60;83.90
40622;DHT22;26324;52.040;11.528;2022-11-22T14:52:26;3.50;83.90
40622;DHT22;26324;52.040;11.528;2022-11-22T14:55:00;3.20;84.50
40622;DHT22;26324;52.040;11.528;2022-11-22T14:57:28;3.00;85.40
40622;DHT22;26324;52.040;11.528;2022-11-22T15:08:48;2.20;88.30
40622;DHT22;26324;52.040;11.528;2022-11-22T15:17:08;2.00;89.10
40622;DHT22;26324;52.040;11.528;2022-11-22T15:19:36;2.00;89.20
40622;DHT22;26324;52.040;11.528;2022-11-22T15:22:13;1.90;89.20
40622;DHT22;26324;52.040;11.528;2022-11-22T15:24:48;1.80;89.50
40622;DHT22;26324;52.040;11.528;2022-11-22T15:27:31;1.70;90.00
40622;DHT22;26324;52.040;11.528;2022-11-22T15:32:44;1.60;90.50
40622;DHT22;26324;52.040;11.528;2022-11-22T15:35:18;1.50;90.80
40622;DHT22;26324;52.040;11.528;2022-11-22T15:38:04;1.50;90.90
40622;DHT22;26324;52.040;11.528;2022-11-22T15:40:36;1.40;90.90
40622;DHT22;26324;52.040;11.528;2022-11-22T15:43:04;1.40;91.10
40622;DHT22;26324;52.040;11.528;2022-11-22T15:45:33;1.40;91.20
40622;DHT22;26324;52.040;11.528;2022-11-22T15:48:03;1.30;91.10
40622;DHT22;26324;52.040;11.528;2022-11-22T15:50:30;1.30;91.10
40622;DHT22;26324;52.040;11.528;2022-11-22T15:53:06;1.30;91.20
40622;DHT22;26324;52.040;11.528;2022-11-22T15:55:37;1.30;91.20
40622;DHT22;26324;52.040;11.528;2022-11-22T15:58:03;1.30;91.20
40622;DHT22;26324;52.040;11.528;2022-11-22T16:00:28;1.30;91.30
40622;DHT22;26324;52.040;11.528;2022-11-22T16:02:56;1.20;91.40
40622;DHT22;26324;52.040;11.528;2022-11-22T16:05:33;1.10;91.50
40622;DHT22;26324;52.040;11.528;2022-11-22T16:08:01;1.10;91.70
40622;DHT22;26324;52.040;11.528;2022-11-22T16:10:35;1.10;91.60
40622;DHT22;26324;52.040;11.528;2022-11-22T16:15:44;1.10;91.70
40622;DHT22;26324;52.040;11.528;2022-11-22T16:18:30;1.10;91.70
40622;DHT22;26324;52.040;11.528;2022-11-22T16:21:17;1.10;91.80
40622;DHT22;26324;52.040;11.528;2022-11-22T16:23:44;1.10;91.80
40622;DHT22;26324;52.040;11.528;2022-11-22T16:26:25;1.10;91.90
40622;DHT22;26324;52.040;11.528;2022-11-22T16:28:55;1.10;91.90
40622;DHT22;26324;52.040;11.528;2022-11-22T16:31:29;1.00;91.90
40622;DHT22;26324;52.040;11.528;2022-11-22T16:33:55;1.00;91.90
40622;DHT22;26324;52.040;11.528;2022-11-22T16:36:23;0.90;92.00
40622;DHT22;26324;52.040;11.528;2022-11-22T16:38:49;0.90;92.20
40622;DHT22;26324;52.040;11.528;2022-11-22T16:43:43;0.90;92.40
40622;DHT22;26324;52.040;11.528;2022-11-22T16:46:12;0.90;92.50
40622;DHT22;26324;52.040;11.528;2022-11-22T16:48:38;0.90;92.60
40622;DHT22;26324;52.040;11.528;2022-11-22T16:51:05;1.00;92.80
40622;DHT22;26324;52.040;11.528;2022-11-22T16:53:46;1.00;92.80
40622;DHT22;26324;52.040;11.528;2022-11-22T16:56:16;1.00;92.80
40622;DHT22;26324;52.040;11.528;2022-11-22T16:58:42;1.00;92.80
40622;DHT22;26324;52.040;11.528;2022-11-22T17:01:11;0.80;92.70
40622;DHT22;26324;52.040;11.528;2022-11-22T17:03:38;0.90;92.60
40622;DHT22;26324;52.040;11.528;2022-11-22T17:06:04;0.90;92.60
40622;DHT22;26324;52.040;11.528;2022-11-22T17:08:29;0.90;92.60
40622;DHT22;26324;52.040;11.528;2022-11-22T17:10:55;0.90;92.50
40622;DHT22;26324;52.040;11.528;2022-11-22T17:13:23;0.90;92.50
40622;DHT22;26324;52.040;11.528;2022-11-22T17:15:53;0.80;92.50
40622;DHT22;26324;52.040;11.528;2022-11-22T17:18:19;0.80;92.50
40622;DHT22;26324;52.040;11.528;2022-11-22T17:20:45;0.80;92.40
40622;DHT22;26324;52.040;11.528;2022-11-22T17:23:34;0.80;92.40
40622;DHT22;26324;52.040;11.528;2022-11-22T17:26:03;0.80;92.40
40622;DHT22;26324;52.040;11.528;2022-11-22T17:28:28;0.70;92.40
40622;DHT22;26324;52.040;11.528;2022-11-22T17:30:57;0.60;92.30
40622;DHT22;26324;52.040;11.528;2022-11-22T17:33:23;0.70;92.40